sensor_id;sensor_type;location;lat;lon;timestamp;pressure;altitude;pressure_sealevel;temperature;humidity
74794;BME280;63320;50.768;6.724;2023-07-24T00:00:00;99251.53;;;19.18;84.30
74794;BME280;63320;50.768;6.724;2023-07-24T00:02:26;99253.44;;;19.07;84.52
74794;BME280;63320;50.768;6.724;2023-07-24T00:04:51;99247.38;;;19.15;83.94
74794;BME280;63320;50.768;6.724;2023-07-24T00:07:16;99252.78;;;19.05;84.06
74794;BME280;63320;50.768;6.724;2023-07-24T00:09:42;99245.84;;;18.95;84.16
74794;BME280;63320;50.768;6.724;2023-07-24T00:12:07;99240.28;;;19.06;83.72
74794;BME280;63320;50.768;6.724;2023-07-24T00:14:34;99244.94;;;19.04;83.68
74794;BME280;63320;50.768;6.724;2023-07-24T00:17:00;99249.81;;;19.08;83.25
74794;BME280;63320;50.768;6.724;2023-07-24T00:19:25;99242.13;;;19.05;83.21
74794;BME280;63320;50.768;6.724;2023-07-24T00:21:50;99240.59;;;18.85;83.65
74794;BME280;63320;50.768;6.724;2023-07-24T00:24:16;99235.94;;;18.87;83.69
74794;BME280;63320;50.768;6.724;2023-07-24T00:26:41;99235.34;;;18.93;83.17
74794;BME280;63320;50.768;6.724;2023-07-24T00:29:06;99230.75;;;18.85;83.57
74794;BME280;63320;50.768;6.724;2023-07-24T00:31:33;99238.97;;;18.92;83.09
74794;BME280;63320;50.768;6.724;2023-07-24T00:33:58;99236.47;;;18.91;83.13
74794;BME280;63320;50.768;6.724;2023-07-24T00:36:23;99227.25;;;18.85;82.54
74794;BME280;63320;50.768;6.724;2023-07-24T00:38:49;99236.16;;;18.76;82.67
74794;BME280;63320;50.768;6.724;2023-07-24T00:41:14;99234.19;;;18.78;82.61
74794;BME280;63320;50.768;6.724;2023-07-24T00:43:39;99232.66;;;18.75;82.76
74794;BME280;63320;50.768;6.724;2023-07-24T00:46:05;99234.72;;;18.81;82.36
74794;BME280;63320;50.768;6.724;2023-07-24T00:48:31;99228.88;;;18.78;82.73
74794;BME280;63320;50.768;6.724;2023-07-24T00:50:57;99227.88;;;18.79;82.57
74794;BME280;63320;50.768;6.724;2023-07-24T00:53:22;99221.84;;;18.77;82.51
74794;BME280;63320;50.768;6.724;2023-07-24T00:55:48;99214.69;;;18.77;82.56
74794;BME280;63320;50.768;6.724;2023-07-24T00:58:16;99194.41;;;18.67;82.88
74794;BME280;63320;50.768;6.724;2023-07-24T01:00:42;99189.06;;;18.49;83.73
74794;BME280;63320;50.768;6.724;2023-07-24T01:03:07;99201.16;;;18.43;83.72
74794;BME280;63320;50.768;6.724;2023-07-24T01:05:34;99198.06;;;18.48;83.84
74794;BME280;63320;50.768;6.724;2023-07-24T01:08:00;99194.00;;;18.44;83.56
74794;BME280;63320;50.768;6.724;2023-07-24T01:10:25;99192.78;;;18.38;83.82
74794;BME280;63320;50.768;6.724;2023-07-24T01:12:57;99190.53;;;18.61;82.80
74794;BME280;63320;50.768;6.724;2023-07-24T01:15:25;99172.41;;;18.74;81.95
74794;BME280;63320;50.768;6.724;2023-07-24T01:17:58;99162.28;;;18.78;81.52
74794;BME280;63320;50.768;6.724;2023-07-24T01:20:26;99163.13;;;18.78;81.50
74794;BME280;63320;50.768;6.724;2023-07-24T01:23:09;99156.34;;;18.84;81.52
74794;BME280;63320;50.768;6.724;2023-07-24T01:25:48;99156.34;;;18.84;81.23
74794;BME280;63320;50.768;6.724;2023-07-24T01:28:16;99151.31;;;18.81;80.84
74794;BME280;63320;50.768;6.724;2023-07-24T01:30:42;99143.69;;;18.86;80.57
74794;BME280;63320;50.768;6.724;2023-07-24T01:33:07;99166.28;;;18.82;80.80
74794;BME280;63320;50.768;6.724;2023-07-24T01:35:32;99156.47;;;18.82;80.94
74794;BME280;63320;50.768;6.724;2023-07-24T01:37:59;99160.00;;;18.83;80.86
74794;BME280;63320;50.768;6.724;2023-07-24T01:40:25;99160.06;;;18.73;81.10
74794;BME280;63320;50.768;6.724;2023-07-24T01:42:52;99161.34;;;18.87;80.91
74794;BME280;63320;50.768;6.724;2023-07-24T01:45:17;99170.50;;;18.84;80.89
74794;BME280;63320;50.768;6.724;2023-07-24T01:47:42;99165.16;;;18.84;80.93
74794;BME280;63320;50.768;6.724;2023-07-24T01:50:08;99151.16;;;18.82;80.84
74794;BME280;63320;50.768;6.724;2023-07-24T01:52:33;99153.22;;;18.88;80.52
74794;BME280;63320;50.768;6.724;2023-07-24T01:54:59;99154.06;;;18.89;80.62
74794;BME280;63320;50.768;6.724;2023-07-24T01:57:24;99152.59;;;18.95;80.85
74794;BME280;63320;50.768;6.724;2023-07-24T01:59:51;99142.50;;;18.98;81.12
74794;BME280;63320;50.768;6.724;2023-07-24T02:02:16;99142.94;;;18.94;82.17
74794;BME280;63320;50.768;6.724;2023-07-24T02:04:41;99137.81;;;18.82;82.61
74794;BME280;63320;50.768;6.724;2023-07-24T02:07:07;99126.25;;;18.92;82.76
74794;BME280;63320;50.768;6.724;2023-07-24T02:09:32;99131.66;;;18.82;83.09
74794;BME280;63320;50.768;6.724;2023-07-24T02:11:57;99136.03;;;18.83;83.63
74794;BME280;63320;50.768;6.724;2023-07-24T02:14:23;99134.41;;;18.90;83.45
74794;BME280;63320;50.768;6.724;2023-07-24T02:16:50;99131.38;;;18.85;83.74
74794;BME280;63320;50.768;6.724;2023-07-24T02:19:15;99126.41;;;18.90;83.35
74794;BME280;63320;50.768;6.724;2023-07-24T02:21:40;99125.97;;;18.77;84.23
74794;BME280;63320;50.768;6.724;2023-07-24T02:24:06;99108.94;;;18.70;84.68
74794;BME280;63320;50.768;6.724;2023-07-24T02:26:31;99102.31;;;18.74;84.34
74794;BME280;63320;50.768;6.724;2023-07-24T02:28:57;99103.00;;;18.76;84.08
74794;BME280;63320;50.768;6.724;2023-07-24T02:31:22;99110.16;;;18.75;84.31
74794;BME280;63320;50.768;6.724;2023-07-24T02:33:49;99096.03;;;18.65;85.05
74794;BME280;63320;50.768;6.724;2023-07-24T02:36:14;99088.00;;;18.75;84.61
74794;BME280;63320;50.768;6.724;2023-07-24T02:38:40;99074.59;;;18.67;85.29
74794;BME280;63320;50.768;6.724;2023-07-24T02:41:05;99065.03;;;18.74;84.83
74794;BME280;63320;50.768;6.724;2023-07-24T02:43:30;99067.00;;;18.72;84.98
74794;BME280;63320;50.768;6.724;2023-07-24T02:46:00;99063.75;;;18.78;84.77
74794;BME280;63320;50.768;6.724;2023-07-24T02:48:25;99067.00;;;18.72;85.78
74794;BME280;63320;50.768;6.724;2023-07-24T02:50:52;99064.25;;;18.63;85.83
74794;BME280;63320;50.768;6.724;2023-07-24T02:53:17;99071.81;;;18.68;85.26
74794;BME280;63320;50.768;6.724;2023-07-24T02:55:42;99074.31;;;18.70;85.25
74794;BME280;63320;50.768;6.724;2023-07-24T02:58:08;99077.56;;;18.63;85.17
74794;BME280;63320;50.768;6.724;2023-07-24T03:00:33;99066.50;;;18.68;85.36
74794;BME280;63320;50.768;6.724;2023-07-24T03:02:58;99063.44;;;18.63;84.98
74794;BME280;63320;50.768;6.724;2023-07-24T03:05:24;99053.19;;;18.68;84.91
74794;BME280;63320;50.768;6.724;2023-07-24T03:07:50;99057.94;;;18.64;85.35
74794;BME280;63320;50.768;6.724;2023-07-24T03:10:16;99062.25;;;18.66;84.91
74794;BME280;63320;50.768;6.724;2023-07-24T03:12:41;99054.34;;;18.56;85.42
74794;BME280;63320;50.768;6.724;2023-07-24T03:15:07;99050.47;;;18.50;85.28
74794;BME280;63320;50.768;6.724;2023-07-24T03:17:32;99057.84;;;18.56;85.34
74794;BME280;63320;50.768;6.724;2023-07-24T03:19:58;99060.00;;;18.53;85.41
74794;BME280;63320;50.768;6.724;2023-07-24T03:22:24;99067.00;;;18.54;85.01
74794;BME280;63320;50.768;6.724;2023-07-24T03:24:50;99061.69;;;18.54;84.72
74794;BME280;63320;50.768;6.724;2023-07-24T03:27:16;99052.38;;;18.40;85.17
74794;BME280;63320;50.768;6.724;2023-07-24T03:29:41;99053.16;;;18.32;85.25
74794;BME280;63320;50.768;6.724;2023-07-24T03:32:07;99061.66;;;18.36;85.44
74794;BME280;63320;50.768;6.724;2023-07-24T03:34:32;99063.31;;;18.37;84.89
74794;BME280;63320;50.768;6.724;2023-07-24T03:36:57;99060.59;;;18.29;85.27
74794;BME280;63320;50.768;6.724;2023-07-24T03:39:23;99065.03;;;18.38;85.01
74794;BME280;63320;50.768;6.724;2023-07-24T03:41:49;99067.16;;;18.34;84.93
74794;BME280;63320;50.768;6.724;2023-07-24T03:44:15;99068.19;;;18.42;84.16
74794;BME280;63320;50.768;6.724;2023-07-24T03:46:40;99055.34;;;18.37;84.33
74794;BME280;63320;50.768;6.724;2023-07-24T03:49:05;99056.03;;;18.39;84.29
74794;BME280;63320;50.768;6.724;2023-07-24T03:51:31;99053.00;;;18.34;84.72
74794;BME280;63320;50.768;6.724;2023-07-24T03:53:56;99051.47;;;18.49;83.92
74794;BME280;63320;50.768;6.724;2023-07-24T03:56:21;99052.84;;;18.53;83.05
74794;BME280;63320;50.768;6.724;2023-07-24T03:58:48;99056.03;;;18.39;83.34
74794;BME280;63320;50.768;6.724;2023-07-24T04:01:13;99052.59;;;18.47;83.09
74794;BME280;63320;50.768;6.724;2023-07-24T04:03:39;99048.97;;;18.48;82.81
74794;BME280;63320;50.768;6.724;2023-07-24T04:06:04;99042.91;;;18.37;83.21
74794;BME280;63320;50.768;6.724;2023-07-24T04:08:29;99034.31;;;18.44;83.22
74794;BME280;63320;50.768;6.724;2023-07-24T04:10:55;99041.13;;;18.46;83.16
74794;BME280;63320;50.768;6.724;2023-07-24T04:13:20;99048.50;;;18.52;82.96
74794;BME280;63320;50.768;6.724;2023-07-24T04:15:47;99055.34;;;18.55;82.73
74794;BME280;63320;50.768;6.724;2023-07-24T04:18:12;99059.16;;;18.52;83.11
74794;BME280;63320;50.768;6.724;2023-07-24T04:20:37;99057.47;;;18.51;83.30
74794;BME280;63320;50.768;6.724;2023-07-24T04:23:03;99054.19;;;18.57;82.79
74794;BME280;63320;50.768;6.724;2023-07-24T04:25:28;99038.53;;;18.54;82.69
74794;BME280;63320;50.768;6.724;2023-07-24T04:27:54;99037.72;;;18.54;82.48
74794;BME280;63320;50.768;6.724;2023-07-24T04:30:20;99039.38;;;18.55;82.41
74794;BME280;63320;50.768;6.724;2023-07-24T04:32:47;99046.16;;;18.49;82.04
74794;BME280;63320;50.768;6.724;2023-07-24T04:35:12;99047.28;;;18.47;81.76
74794;BME280;63320;50.768;6.724;2023-07-24T04:37:37;99044.94;;;18.44;81.46
74794;BME280;63320;50.768;6.724;2023-07-24T04:40:04;99038.00;;;18.51;81.18
74794;BME280;63320;50.768;6.724;2023-07-24T04:42:29;99049.50;;;18.51;80.43
74794;BME280;63320;50.768;6.724;2023-07-24T04:44:55;99050.41;;;18.42;79.85
74794;BME280;63320;50.768;6.724;2023-07-24T04:47:20;99053.06;;;18.42;79.70
74794;BME280;63320;50.768;6.724;2023-07-24T04:49:47;99062.03;;;18.41;79.48
74794;BME280;63320;50.768;6.724;2023-07-24T04:52:12;99048.22;;;18.37;78.74
74794;BME280;63320;50.768;6.724;2023-07-24T04:54:37;99049.72;;;18.40;78.58
74794;BME280;63320;50.768;6.724;2023-07-24T04:57:03;99048.97;;;18.30;78.99
74794;BME280;63320;50.768;6.724;2023-07-24T04:59:29;99055.44;;;18.27;79.36
74794;BME280;63320;50.768;6.724;2023-07-24T05:01:54;99057.16;;;18.36;78.67
74794;BME280;63320;50.768;6.724;2023-07-24T05:04:19;99069.19;;;18.41;78.58
74794;BME280;63320;50.768;6.724;2023-07-24T05:06:46;99062.50;;;18.36;78.49
74794;BME280;63320;50.768;6.724;2023-07-24T05:09:11;99069.41;;;18.47;78.31
74794;BME280;63320;50.768;6.724;2023-07-24T05:11:37;99074.97;;;18.54;77.74
74794;BME280;63320;50.768;6.724;2023-07-24T05:14:02;99080.94;;;18.48;77.93
74794;BME280;63320;50.768;6.724;2023-07-24T05:16:27;99082.88;;;18.46;78.08
74794;BME280;63320;50.768;6.724;2023-07-24T05:18:53;99075.75;;;18.64;77.88
74794;BME280;63320;50.768;6.724;2023-07-24T05:21:18;99068.69;;;18.73;77.51
74794;BME280;63320;50.768;6.724;2023-07-24T05:23:45;99072.25;;;18.81;76.86
74794;BME280;63320;50.768;6.724;2023-07-24T05:26:10;99082.00;;;18.73;76.54
74794;BME280;63320;50.768;6.724;2023-07-24T05:28:35;99075.69;;;18.74;76.88
74794;BME280;63320;50.768;6.724;2023-07-24T05:31:01;99083.22;;;18.78;76.82
74794;BME280;63320;50.768;6.724;2023-07-24T05:33:26;99093.34;;;18.75;77.39
74794;BME280;63320;50.768;6.724;2023-07-24T05:35:57;99102.91;;;18.68;77.58
74794;BME280;63320;50.768;6.724;2023-07-24T05:38:22;99102.22;;;18.66;77.76
74794;BME280;63320;50.768;6.724;2023-07-24T05:40:55;99088.81;;;18.57;77.66
74794;BME280;63320;50.768;6.724;2023-07-24T05:43:20;99100.38;;;18.66;77.67
74794;BME280;63320;50.768;6.724;2023-07-24T05:45:46;99099.28;;;18.69;77.63
74794;BME280;63320;50.768;6.724;2023-07-24T05:48:11;99106.50;;;18.76;77.56
74794;BME280;63320;50.768;6.724;2023-07-24T05:50:36;99100.53;;;18.82;77.45
74794;BME280;63320;50.768;6.724;2023-07-24T05:53:02;99105.81;;;18.74;77.42
74794;BME280;63320;50.768;6.724;2023-07-24T05:55:27;99107.69;;;18.82;77.56
74794;BME280;63320;50.768;6.724;2023-07-24T05:57:53;99112.19;;;18.81;77.69
74794;BME280;63320;50.768;6.724;2023-07-24T06:00:19;99112.56;;;18.86;77.86
74794;BME280;63320;50.768;6.724;2023-07-24T06:02:44;99123.94;;;18.88;77.69
74794;BME280;63320;50.768;6.724;2023-07-24T06:05:09;99125.13;;;18.94;77.61
74794;BME280;63320;50.768;6.724;2023-07-24T06:07:35;99129.75;;;18.92;77.49
74794;BME280;63320;50.768;6.724;2023-07-24T06:10:00;99127.19;;;18.82;76.96
74794;BME280;63320;50.768;6.724;2023-07-24T06:12:25;99119.97;;;18.93;77.26
74794;BME280;63320;50.768;6.724;2023-07-24T06:14:52;99115.59;;;18.92;76.98
74794;BME280;63320;50.768;6.724;2023-07-24T06:17:17;99115.47;;;18.93;76.99
74794;BME280;63320;50.768;6.724;2023-07-24T06:19:43;99118.44;;;18.90;77.47
74794;BME280;63320;50.768;6.724;2023-07-24T06:22:08;99115.47;;;18.93;77.43
74794;BME280;63320;50.768;6.724;2023-07-24T06:24:33;99115.94;;;18.88;77.07
74794;BME280;63320;50.768;6.724;2023-07-24T06:26:59;99106.78;;;18.91;77.20
74794;BME280;63320;50.768;6.724;2023-07-24T06:29:24;99106.16;;;18.97;77.15
74794;BME280;63320;50.768;6.724;2023-07-24T06:31:51;99106.16;;;18.97;76.74
74794;BME280;63320;50.768;6.724;2023-07-24T06:34:16;99106.84;;;18.99;76.88
74794;BME280;63320;50.768;6.724;2023-07-24T06:36:41;99108.53;;;19.00;76.27
74794;BME280;63320;50.768;6.724;2023-07-24T06:39:07;99113.19;;;18.98;76.88
74794;BME280;63320;50.768;6.724;2023-07-24T06:41:32;99108.53;;;19.00;77.21
74794;BME280;63320;50.768;6.724;2023-07-24T06:43:57;99107.16;;;18.96;77.41
74794;BME280;63320;50.768;6.724;2023-07-24T06:46:23;99123.22;;;19.04;77.21
74794;BME280;63320;50.768;6.724;2023-07-24T06:48:49;99113.97;;;19.17;76.82
74794;BME280;63320;50.768;6.724;2023-07-24T06:51:15;99112.47;;;19.14;76.84
74794;BME280;63320;50.768;6.724;2023-07-24T06:53:40;99113.13;;;19.16;76.94
74794;BME280;63320;50.768;6.724;2023-07-24T06:56:05;99108.34;;;19.20;76.72
74794;BME280;63320;50.768;6.724;2023-07-24T06:58:31;99094.81;;;19.13;76.89
74794;BME280;63320;50.768;6.724;2023-07-24T07:00:56;99099.72;;;19.26;76.31
74794;BME280;63320;50.768;6.724;2023-07-24T07:03:21;99095.69;;;19.22;76.50
74794;BME280;63320;50.768;6.724;2023-07-24T07:05:48;99098.22;;;19.23;76.04
74794;BME280;63320;50.768;6.724;2023-07-24T07:08:13;99098.22;;;19.23;75.87
74794;BME280;63320;50.768;6.724;2023-07-24T07:10:38;99107.03;;;19.24;75.90
74794;BME280;63320;50.768;6.724;2023-07-24T07:13:04;99096.00;;;19.19;75.64
74794;BME280;63320;50.768;6.724;2023-07-24T07:15:29;99104.59;;;19.12;74.44
74794;BME280;63320;50.768;6.724;2023-07-24T07:17:54;99096.31;;;19.15;74.84
74794;BME280;63320;50.768;6.724;2023-07-24T07:20:20;99101.47;;;19.17;74.63
74794;BME280;63320;50.768;6.724;2023-07-24T07:22:46;99095.19;;;19.18;74.50
74794;BME280;63320;50.768;6.724;2023-07-24T07:25:12;99078.03;;;19.21;74.85
74794;BME280;63320;50.768;6.724;2023-07-24T07:27:37;99082.88;;;19.25;75.18
74794;BME280;63320;50.768;6.724;2023-07-24T07:30:03;99075.56;;;19.27;74.33
74794;BME280;63320;50.768;6.724;2023-07-24T07:32:29;99076.56;;;19.26;73.94
74794;BME280;63320;50.768;6.724;2023-07-24T07:34:54;99069.56;;;19.25;73.43
74794;BME280;63320;50.768;6.724;2023-07-24T07:37:19;99063.69;;;19.22;74.00
74794;BME280;63320;50.768;6.724;2023-07-24T07:39:46;99066.53;;;19.20;73.76
74794;BME280;63320;50.768;6.724;2023-07-24T07:42:11;99060.19;;;19.21;73.22
74794;BME280;63320;50.768;6.724;2023-07-24T07:44:36;99076.72;;;19.25;73.30
74794;BME280;63320;50.768;6.724;2023-07-24T07:47:02;99069.72;;;19.24;73.90
74794;BME280;63320;50.768;6.724;2023-07-24T07:49:27;99066.72;;;19.27;73.15
74794;BME280;63320;50.768;6.724;2023-07-24T07:51:53;99063.94;;;19.28;73.88
74794;BME280;63320;50.768;6.724;2023-07-24T07:54:18;99071.00;;;19.46;72.94
74794;BME280;63320;50.768;6.724;2023-07-24T07:56:45;99067.16;;;19.40;73.15
74794;BME280;63320;50.768;6.724;2023-07-24T07:59:10;99091.19;;;19.48;72.62
74794;BME280;63320;50.768;6.724;2023-07-24T08:01:36;99083.56;;;19.53;72.56
74794;BME280;63320;50.768;6.724;2023-07-24T08:04:01;99082.09;;;19.59;72.16
74794;BME280;63320;50.768;6.724;2023-07-24T08:06:27;99078.31;;;19.70;71.42
74794;BME280;63320;50.768;6.724;2023-07-24T08:08:52;99093.28;;;19.62;70.45
74794;BME280;63320;50.768;6.724;2023-07-24T08:11:17;99082.22;;;19.57;70.36
74794;BME280;63320;50.768;6.724;2023-07-24T08:13:44;99081.66;;;19.72;70.35
74794;BME280;63320;50.768;6.724;2023-07-24T08:16:12;99078.88;;;19.81;70.48
74794;BME280;63320;50.768;6.724;2023-07-24T08:18:38;99079.03;;;19.80;69.86
74794;BME280;63320;50.768;6.724;2023-07-24T08:21:04;99056.38;;;19.92;69.07
74794;BME280;63320;50.768;6.724;2023-07-24T08:23:29;99054.25;;;19.96;68.68
74794;BME280;63320;50.768;6.724;2023-07-24T08:25:55;99044.38;;;19.88;68.65
74794;BME280;63320;50.768;6.724;2023-07-24T08:28:20;99033.41;;;19.99;68.48
74794;BME280;63320;50.768;6.724;2023-07-24T08:30:55;99037.91;;;20.07;68.31
74794;BME280;63320;50.768;6.724;2023-07-24T08:33:21;99025.81;;;20.29;67.33
74794;BME280;63320;50.768;6.724;2023-07-24T08:35:46;99035.94;;;20.17;67.25
74794;BME280;63320;50.768;6.724;2023-07-24T08:38:11;99029.78;;;20.25;66.94
74794;BME280;63320;50.768;6.724;2023-07-24T08:40:37;99028.97;;;20.24;66.59
74794;BME280;63320;50.768;6.724;2023-07-24T08:43:02;99032.78;;;20.22;66.40
74794;BME280;63320;50.768;6.724;2023-07-24T08:45:29;99037.13;;;20.31;65.98
74794;BME280;63320;50.768;6.724;2023-07-24T08:47:58;99049.31;;;20.25;65.75
74794;BME280;63320;50.768;6.724;2023-07-24T08:50:24;99035.63;;;20.36;65.59
74794;BME280;63320;50.768;6.724;2023-07-24T08:52:51;99045.19;;;20.47;65.63
74794;BME280;63320;50.768;6.724;2023-07-24T08:55:16;99049.16;;;20.43;65.24
74794;BME280;63320;50.768;6.724;2023-07-24T08:57:42;99039.34;;;20.43;64.82
74794;BME280;63320;50.768;6.724;2023-07-24T09:00:08;99035.47;;;20.38;65.57
74794;BME280;63320;50.768;6.724;2023-07-24T09:02:34;99035.97;;;20.41;65.47
74794;BME280;63320;50.768;6.724;2023-07-24T09:05:01;99035.31;;;20.39;64.83
74794;BME280;63320;50.768;6.724;2023-07-24T09:07:27;99042.66;;;20.37;64.89
74794;BME280;63320;50.768;6.724;2023-07-24T09:09:52;99045.00;;;20.40;65.23
74794;BME280;63320;50.768;6.724;2023-07-24T09:12:17;99042.50;;;20.39;65.47
74794;BME280;63320;50.768;6.724;2023-07-24T09:14:43;99025.47;;;20.40;65.48
74794;BME280;63320;50.768;6.724;2023-07-24T09:17:09;99025.97;;;20.43;64.24
74794;BME280;63320;50.768;6.724;2023-07-24T09:19:35;99024.81;;;20.46;64.71
74794;BME280;63320;50.768;6.724;2023-07-24T09:22:09;99015.13;;;20.45;64.64
74794;BME280;63320;50.768;6.724;2023-07-24T09:24:34;99015.44;;;20.42;64.99
74794;BME280;63320;50.768;6.724;2023-07-24T09:27:00;99016.44;;;20.41;63.99
74794;BME280;63320;50.768;6.724;2023-07-24T09:29:30;98999.44;;;20.42;64.90
74794;BME280;63320;50.768;6.724;2023-07-24T09:31:55;98991.47;;;20.50;64.43
74794;BME280;63320;50.768;6.724;2023-07-24T09:34:21;98989.63;;;20.59;63.64
74794;BME280;63320;50.768;6.724;2023-07-24T09:36:46;98987.25;;;20.72;64.16
74794;BME280;63320;50.768;6.724;2023-07-24T09:39:13;98980.25;;;20.79;62.89
74794;BME280;63320;50.768;6.724;2023-07-24T09:41:39;98976.91;;;20.85;61.38
74794;BME280;63320;50.768;6.724;2023-07-24T09:44:04;98976.38;;;20.90;61.87
74794;BME280;63320;50.768;6.724;2023-07-24T09:46:30;98968.69;;;20.95;61.49
74794;BME280;63320;50.768;6.724;2023-07-24T09:48:56;98958.91;;;21.18;61.35
74794;BME280;63320;50.768;6.724;2023-07-24T09:51:22;98948.97;;;21.04;60.17
74794;BME280;63320;50.768;6.724;2023-07-24T09:53:53;98938.69;;;21.24;61.11
74794;BME280;63320;50.768;6.724;2023-07-24T09:56:22;98936.50;;;21.28;60.62
74794;BME280;63320;50.768;6.724;2023-07-24T09:58:48;98932.06;;;21.12;60.66
74794;BME280;63320;50.768;6.724;2023-07-24T10:01:15;98931.72;;;21.15;60.83
74794;BME280;63320;50.768;6.724;2023-07-24T10:03:46;98935.78;;;21.42;59.07
74794;BME280;63320;50.768;6.724;2023-07-24T10:06:11;98921.28;;;21.36;59.42
74794;BME280;63320;50.768;6.724;2023-07-24T10:08:38;98923.75;;;21.46;58.88
74794;BME280;63320;50.768;6.724;2023-07-24T10:11:04;98917.28;;;21.63;58.17
74794;BME280;63320;50.768;6.724;2023-07-24T10:13:31;98912.50;;;21.82;58.59
74794;BME280;63320;50.768;6.724;2023-07-24T10:15:57;98914.63;;;21.86;58.78
74794;BME280;63320;50.768;6.724;2023-07-24T10:18:26;98909.81;;;21.59;59.05
74794;BME280;63320;50.768;6.724;2023-07-24T10:21:00;98907.44;;;21.64;58.68
74794;BME280;63320;50.768;6.724;2023-07-24T10:23:26;98903.63;;;21.81;58.66
74794;BME280;63320;50.768;6.724;2023-07-24T10:25:51;98899.84;;;21.76;58.02
74794;BME280;63320;50.768;6.724;2023-07-24T10:28:17;98912.59;;;21.88;56.53
74794;BME280;63320;50.768;6.724;2023-07-24T10:30:44;98904.81;;;21.79;57.08
74794;BME280;63320;50.768;6.724;2023-07-24T10:33:10;98909.88;;;21.73;57.62
74794;BME280;63320;50.768;6.724;2023-07-24T10:35:38;98906.72;;;21.70;57.94
74794;BME280;63320;50.768;6.724;2023-07-24T10:38:03;98916.19;;;21.81;56.96
74794;BME280;63320;50.768;6.724;2023-07-24T10:40:29;98915.81;;;21.84;57.08
74794;BME280;63320;50.768;6.724;2023-07-24T10:43:09;98892.88;;;22.12;56.50
74794;BME280;63320;50.768;6.724;2023-07-24T10:45:39;98893.31;;;22.39;55.41
74794;BME280;63320;50.768;6.724;2023-07-24T10:48:06;98887.22;;;22.30;55.98
74794;BME280;63320;50.768;6.724;2023-07-24T10:50:36;98888.34;;;22.36;55.77
74794;BME280;63320;50.768;6.724;2023-07-24T10:53:01;98883.81;;;22.36;55.47
74794;BME280;63320;50.768;6.724;2023-07-24T10:55:27;98881.38;;;22.27;55.22
74794;BME280;63320;50.768;6.724;2023-07-24T10:57:52;98875.22;;;22.41;56.02
74794;BME280;63320;50.768;6.724;2023-07-24T11:00:18;98887.69;;;22.48;55.84
74794;BME280;63320;50.768;6.724;2023-07-24T11:02:43;98874.75;;;22.37;56.91
74794;BME280;63320;50.768;6.724;2023-07-24T11:05:10;98878.81;;;22.33;57.25
74794;BME280;63320;50.768;6.724;2023-07-24T11:07:37;98867.78;;;22.13;57.23
74794;BME280;63320;50.768;6.724;2023-07-24T11:10:02;98870.38;;;22.21;56.64
74794;BME280;63320;50.768;6.724;2023-07-24T11:12:27;98864.28;;;22.28;57.32
74794;BME280;63320;50.768;6.724;2023-07-24T11:14:53;98856.25;;;22.28;58.12
74794;BME280;63320;50.768;6.724;2023-07-24T11:17:18;98854.94;;;22.61;56.75
74794;BME280;63320;50.768;6.724;2023-07-24T11:19:44;98861.03;;;22.55;57.41
74794;BME280;63320;50.768;6.724;2023-07-24T11:22:10;98870.66;;;22.64;56.92
74794;BME280;63320;50.768;6.724;2023-07-24T11:24:43;98862.69;;;22.56;57.55
74794;BME280;63320;50.768;6.724;2023-07-24T11:27:10;98860.56;;;22.81;57.13
74794;BME280;63320;50.768;6.724;2023-07-24T11:29:37;98872.88;;;23.05;56.07
74794;BME280;63320;50.768;6.724;2023-07-24T11:32:03;98887.47;;;23.17;55.47
74794;BME280;63320;50.768;6.724;2023-07-24T11:34:29;98870.19;;;23.05;56.23
74794;BME280;63320;50.768;6.724;2023-07-24T11:36:55;98888.75;;;23.21;55.93
74794;BME280;63320;50.768;6.724;2023-07-24T11:39:23;98875.88;;;23.32;55.34
74794;BME280;63320;50.768;6.724;2023-07-24T11:41:48;98887.00;;;23.14;54.95
74794;BME280;63320;50.768;6.724;2023-07-24T11:44:14;98915.28;;;23.16;55.44
74794;BME280;63320;50.768;6.724;2023-07-24T11:46:39;98910.09;;;22.85;55.16
74794;BME280;63320;50.768;6.724;2023-07-24T11:49:05;98898.00;;;22.74;56.01
74794;BME280;63320;50.768;6.724;2023-07-24T11:51:31;98888.53;;;22.79;55.66
74794;BME280;63320;50.768;6.724;2023-07-24T11:54:06;98884.97;;;23.16;55.20
74794;BME280;63320;50.768;6.724;2023-07-24T11:56:33;98889.13;;;23.18;54.75
74794;BME280;63320;50.768;6.724;2023-07-24T11:59:08;98875.34;;;23.58;54.14
74794;BME280;63320;50.768;6.724;2023-07-24T12:01:34;98888.00;;;23.64;54.32
74794;BME280;63320;50.768;6.724;2023-07-24T12:03:59;98871.75;;;23.50;54.27
74794;BME280;63320;50.768;6.724;2023-07-24T12:06:24;98887.81;;;23.14;56.69
74794;BME280;63320;50.768;6.724;2023-07-24T12:08:50;98903.69;;;21.73;69.23
74794;BME280;63320;50.768;6.724;2023-07-24T12:11:16;98893.84;;;20.23;78.56
74794;BME280;63320;50.768;6.724;2023-07-24T12:13:43;98912.31;;;19.76;79.08
74794;BME280;63320;50.768;6.724;2023-07-24T12:16:08;98893.91;;;19.48;80.13
74794;BME280;63320;50.768;6.724;2023-07-24T12:18:33;98910.97;;;19.72;80.20
74794;BME280;63320;50.768;6.724;2023-07-24T12:20:59;98903.50;;;19.83;77.75
74794;BME280;63320;50.768;6.724;2023-07-24T12:23:24;98903.31;;;19.85;78.86
74794;BME280;63320;50.768;6.724;2023-07-24T12:25:49;98914.50;;;20.05;78.61
74794;BME280;63320;50.768;6.724;2023-07-24T12:28:15;98910.00;;;20.30;79.15
74794;BME280;63320;50.768;6.724;2023-07-24T12:30:42;98894.31;;;19.94;76.99
74794;BME280;63320;50.768;6.724;2023-07-24T12:33:07;98887.81;;;19.80;78.10
74794;BME280;63320;50.768;6.724;2023-07-24T12:35:33;98894.47;;;19.68;78.47
74794;BME280;63320;50.768;6.724;2023-07-24T12:37:58;98947.50;;;19.37;82.42
74794;BME280;63320;50.768;6.724;2023-07-24T12:40:23;98938.31;;;18.89;90.48
74794;BME280;63320;50.768;6.724;2023-07-24T12:42:49;98930.59;;;18.78;89.50
74794;BME280;63320;50.768;6.724;2023-07-24T12:45:14;98928.75;;;18.78;87.59
74794;BME280;63320;50.768;6.724;2023-07-24T12:47:41;98908.88;;;19.41;88.92
74794;BME280;63320;50.768;6.724;2023-07-24T12:50:07;98909.13;;;19.64;88.70
74794;BME280;63320;50.768;6.724;2023-07-24T12:52:32;98915.84;;;20.01;88.09